Time;durP1;ratioP1;P1;durP2;ratioP2;P2;SDS_P1;SDS_P2;PMS_P1;PMS_P2;Temp;Humidity;BMP_temperature;BMP_pressure;BME280_temperature;BME280_humidity;BME280_pressure;Samples;Min_cycle;Max_cycle;Signal;HPM_P1;HPM_P2
2022/08/20 00:00:15;;;;;;;15.50;2.00;;;13.20;99.90;;;;;;4901736;29;20060;-89
2022/08/20 00:02:45;;;;;;;11.82;1.73;;;13.20;99.90;;;;;;4902239;29;20032;-90
2022/08/20 00:05:12;;;;;;;8.25;1.65;;;13.20;99.90;;;;;;4902427;29;20111;-90
2022/08/20 00:07:38;;;;;;;7.90;1.85;;;13.20;99.90;;;;;;4901968;29;20032;-90
2022/08/20 00:10:06;;;;;;;13.43;2.30;;;13.20;99.90;;;;;;4918297;29;20035;-90
2022/08/20 00:12:34;;;;;;;7.35;1.63;;;13.20;99.90;;;;;;4902250;29;20312;-89
2022/08/20 00:15:00;;;;;;;11.90;2.28;;;13.10;99.90;;;;;;4901730;29;20032;-90
2022/08/20 00:17:30;;;;;;;11.38;1.88;;;13.10;99.90;;;;;;4902211;29;20040;-89
2022/08/20 00:19:56;;;;;;;14.88;2.80;;;13.20;99.90;;;;;;4902887;29;20040;-90
2022/08/20 00:22:22;;;;;;;14.30;1.83;;;13.10;99.90;;;;;;4910153;29;20075;-90
2022/08/20 00:24:48;;;;;;;11.50;2.42;;;13.10;99.90;;;;;;4909625;29;20024;-90
2022/08/20 00:27:13;;;;;;;7.43;1.98;;;13.10;99.90;;;;;;4906978;29;20032;-89
2022/08/20 00:29:39;;;;;;;13.82;1.70;;;13.20;99.90;;;;;;4905396;29;20039;-89
2022/08/20 00:32:05;;;;;;;7.47;1.67;;;13.20;99.90;;;;;;4904075;29;20020;-89
2022/08/20 00:34:31;;;;;;;12.20;2.17;;;13.20;99.90;;;;;;4903803;29;20032;-89
2022/08/20 00:36:56;;;;;;;8.80;1.60;;;13.20;99.90;;;;;;4903433;29;20036;-90
2022/08/20 00:39:22;;;;;;;10.38;1.98;;;13.20;99.90;;;;;;4903917;29;20084;-90
2022/08/20 00:41:48;;;;;;;14.60;1.90;;;13.20;99.90;;;;;;4902604;29;20036;-90
2022/08/20 00:44:21;;;;;;;13.05;1.92;;;13.20;99.90;;;;;;4902945;29;20442;-90
2022/08/20 00:46:48;;;;;;;11.63;1.98;;;13.20;99.90;;;;;;4903490;29;20052;-90
2022/08/20 00:49:30;;;;;;;15.32;2.38;;;13.20;99.90;;;;;;4903996;29;20083;-90
2022/08/20 00:52:13;;;;;;;10.70;1.73;;;13.30;99.90;;;;;;4910995;29;20040;-90
2022/08/20 00:54:44;;;;;;;13.73;2.10;;;13.30;99.90;;;;;;4907366;29;20051;-89
2022/08/20 00:57:24;;;;;;;;;;;13.30;99.90;;;;;;4903209;29;20040;-90
2022/08/20 00:59:51;;;;;;;12.02;1.98;;;13.30;99.90;;;;;;4918936;29;19907;-91
2022/08/20 01:02:20;;;;;;;11.60;2.05;;;13.30;99.90;;;;;;4906653;29;20036;-90
2022/08/20 01:04:53;;;;;;;6.25;1.27;;;13.30;99.90;;;;;;4907735;29;20091;-90
2022/08/20 01:07:31;;;;;;;9.75;2.60;;;13.40;99.90;;;;;;4906357;29;20021;-88
2022/08/20 01:10:35;;;;;;;9.77;1.77;;;13.40;99.90;;;;;;4922269;29;20068;-88
2022/08/20 01:13:08;;;;;;;8.82;1.90;;;13.40;99.90;;;;;;4842206;29;20437;-88
2022/08/20 01:15:38;;;;;;;11.68;2.03;;;13.40;99.90;;;;;;4842177;29;20022;-88
2022/08/20 01:18:06;;;;;;;15.93;2.43;;;13.40;99.90;;;;;;4842170;29;20075;-88
2022/08/20 01:20:37;;;;;;;15.80;2.10;;;13.40;99.90;;;;;;4842379;29;20032;-89
2022/08/20 01:23:28;;;;;;;12.65;2.00;;;13.40;99.90;;;;;;4846760;29;20117;-89
2022/08/20 01:26:01;;;;;;;;;;;13.50;99.90;;;;;;4850592;29;20077;-89
2022/08/20 01:28:51;;;;;;;8.23;1.80;;;13.50;99.90;;;;;;4845819;29;19909;-89
2022/08/20 01:31:27;;;;;;;9.43;1.70;;;13.50;99.90;;;;;;4845988;29;20042;-88
2022/08/20 01:33:55;;;;;;;11.57;2.08;;;13.50;99.90;;;;;;4850475;29;20103;-89
2022/08/20 01:36:24;;;;;;;15.60;3.10;;;13.50;99.90;;;;;;4850643;29;20021;-89
2022/08/20 01:38:50;;;;;;;13.73;1.75;;;13.40;99.90;;;;;;4850580;29;20065;-90
2022/08/20 01:41:29;;;;;;;11.13;2.08;;;13.50;99.90;;;;;;4848578;29;20064;-88
2022/08/20 01:43:56;;;;;;;16.92;2.25;;;13.50;99.90;;;;;;4883562;29;20044;-89
2022/08/20 01:46:28;;;;;;;15.18;2.60;;;13.40;99.90;;;;;;4917515;29;20032;-89
2022/08/20 01:48:54;;;;;;;10.35;2.42;;;13.50;99.90;;;;;;4917512;29;20080;-89
2022/08/20 01:51:26;;;;;;;4.90;1.92;;;13.40;99.90;;;;;;4916649;29;20072;-89
2022/08/20 01:53:54;;;;;;;12.40;2.40;;;13.40;99.90;;;;;;4900345;29;20382;-89
2022/08/20 01:56:27;;;;;;;11.70;2.33;;;13.40;99.90;;;;;;4916346;29;20397;-89
2022/08/20 01:58:55;;;;;;;7.13;2.05;;;13.40;99.90;;;;;;4916314;29;20040;-89
2022/08/20 02:01:26;;;;;;;9.18;2.17;;;13.40;99.90;;;;;;4916253;29;20052;-89
2022/08/20 02:03:53;;;;;;;11.27;2.53;;;13.40;99.90;;;;;;4900593;29;20379;-89
2022/08/20 02:06:24;;;;;;;7.45;2.10;;;13.40;99.90;;;;;;4916476;29;20043;-88
2022/08/20 02:08:52;;;;;;;11.93;2.58;;;13.50;99.90;;;;;;4916346;29;20028;-89
2022/08/20 02:11:18;;;;;;;13.50;2.65;;;13.40;99.90;;;;;;4915855;29;20494;-88
2022/08/20 02:13:44;;;;;;;12.60;2.33;;;13.40;99.90;;;;;;4917280;29;20099;-88
2022/08/20 02:16:09;;;;;;;14.93;2.08;;;13.40;99.90;;;;;;4916187;29;20058;-88
2022/08/20 02:18:35;;;;;;;10.13;2.28;;;13.30;99.90;;;;;;4915944;29;20059;-88
2022/08/20 02:21:02;;;;;;;11.35;1.98;;;13.20;99.90;;;;;;4915801;29;20027;-88
2022/08/20 02:23:28;;;;;;;12.20;2.10;;;13.20;99.90;;;;;;4900005;29;20032;-89
2022/08/20 02:25:54;;;;;;;13.80;2.20;;;13.20;99.90;;;;;;4915522;29;20029;-88
2022/08/20 02:28:20;;;;;;;9.70;2.20;;;13.20;99.90;;;;;;4915552;29;20123;-89
2022/08/20 02:30:49;;;;;;;13.75;2.40;;;13.10;99.90;;;;;;4915943;29;20035;-89
2022/08/20 02:33:17;;;;;;;14.88;2.30;;;13.10;99.90;;;;;;4915997;29;20035;-89
2022/08/20 02:35:47;;;;;;;10.13;2.03;;;13.10;99.90;;;;;;4915726;29;20115;-88
2022/08/20 02:38:14;;;;;;;10.13;2.85;;;13.00;99.90;;;;;;4899991;29;20067;-89
2022/08/20 02:40:43;;;;;;;12.63;3.30;;;13.00;99.90;;;;;;4899846;29;20036;-87
2022/08/20 02:43:09;;;;;;;15.60;2.55;;;12.90;99.90;;;;;;4915826;29;20024;-88
2022/08/20 02:45:42;;;;;;;9.43;2.25;;;12.90;99.90;;;;;;4915628;29;20057;-88
2022/08/20 02:48:17;;;;;;;15.00;2.30;;;12.90;99.90;;;;;;4910919;29;20086;-88
2022/08/20 02:50:43;;;;;;;9.32;2.33;;;12.90;99.90;;;;;;4913177;29;20020;-88
2022/08/20 02:53:09;;;;;;;9.73;2.45;;;12.90;99.90;;;;;;4915923;29;20035;-89
2022/08/20 02:55:34;;;;;;;10.35;2.30;;;12.90;99.90;;;;;;4899594;29;20140;-88
2022/08/20 02:58:00;;;;;;;11.90;2.28;;;12.90;99.90;;;;;;4916343;29;20037;-89
2022/08/20 03:00:29;;;;;;;23.42;3.97;;;12.80;99.90;;;;;;4915579;29;20016;-89
2022/08/20 03:02:55;;;;;;;16.65;2.40;;;12.80;99.90;;;;;;4914409;29;20028;-89
2022/08/20 03:05:21;;;;;;;12.40;2.63;;;12.80;99.90;;;;;;4915742;29;20021;-89
2022/08/20 03:07:52;;;;;;;11.57;2.25;;;12.80;99.90;;;;;;4919400;29;20035;-89
2022/08/20 03:10:22;;;;;;;;;;;12.80;99.90;;;;;;4921024;29;20047;-88
2022/08/20 03:12:47;;;;;;;12.73;2.40;;;12.80;99.90;;;;;;4904411;29;19911;-88
2022/08/20 03:15:13;;;;;;;11.48;2.55;;;12.80;99.90;;;;;;4927323;29;20088;-88
2022/08/20 03:17:39;;;;;;;11.32;2.42;;;12.80;99.90;;;;;;4926403;29;20456;-88
2022/08/20 03:20:06;;;;;;;13.32;2.85;;;12.80;99.90;;;;;;4924700;29;20024;-88
2022/08/20 03:22:32;;;;;;;14.73;2.78;;;12.80;99.90;;;;;;4922527;29;20024;-88
2022/08/20 03:24:58;;;;;;;16.27;2.70;;;12.80;99.90;;;;;;4920145;29;20449;-89
2022/08/20 03:27:24;;;;;;;12.02;2.83;;;12.90;99.90;;;;;;4903988;29;20031;-88
2022/08/20 03:29:50;;;;;;;10.73;2.63;;;13.00;99.90;;;;;;4919775;29;20032;-88
2022/08/20 03:32:16;;;;;;;15.18;2.80;;;13.10;99.90;;;;;;4919908;29;20021;-87
2022/08/20 03:34:42;;;;;;;16.70;2.38;;;13.20;99.90;;;;;;4919610;29;20032;-88
2022/08/20 03:37:08;;;;;;;15.60;2.72;;;13.20;99.90;;;;;;4904631;29;20179;-87
2022/08/20 03:39:34;;;;;;;14.27;2.35;;;13.30;99.90;;;;;;4919251;29;20024;-88
2022/08/20 03:42:00;;;;;;;8.90;2.53;;;13.30;99.90;;;;;;4919182;29;20024;-88
2022/08/20 03:44:27;;;;;;;12.38;2.72;;;13.30;99.90;;;;;;4919102;29;20040;-89
2022/08/20 03:46:53;;;;;;;9.10;2.53;;;13.40;99.90;;;;;;4918904;29;20020;-89
2022/08/20 03:49:18;;;;;;;13.57;2.45;;;13.40;99.90;;;;;;4918426;29;20094;-89
2022/08/20 03:51:44;;;;;;;17.08;2.63;;;13.30;99.90;;;;;;4919175;29;20064;-89
2022/08/20 03:54:10;;;;;;;12.82;2.78;;;13.30;99.90;;;;;;4918911;29;20024;-88
2022/08/20 03:56:36;;;;;;;10.65;2.90;;;13.30;99.90;;;;;;4918853;29;20482;-88
2022/08/20 03:59:01;;;;;;;10.90;2.47;;;13.30;99.90;;;;;;4918625;29;20040;-88
2022/08/20 04:01:27;;;;;;;16.50;2.88;;;13.30;99.90;;;;;;4918595;29;20056;-88
2022/08/20 04:03:53;;;;;;;8.68;2.85;;;13.30;99.90;;;;;;4918433;29;20028;-88
2022/08/20 04:06:18;;;;;;;11.90;2.55;;;13.20;99.90;;;;;;4904350;29;20095;-89
2022/08/20 04:08:44;;;;;;;13.23;2.72;;;13.20;99.90;;;;;;4920624;29;20081;-88
2022/08/20 04:11:10;;;;;;;15.90;2.83;;;13.20;99.90;;;;;;4918580;29;20055;-88
2022/08/20 04:13:36;;;;;;;12.48;2.47;;;13.20;99.90;;;;;;4918738;29;20020;-88
2022/08/20 04:16:04;;;;;;;12.43;2.50;;;13.20;99.90;;;;;;4918375;29;20068;-89
2022/08/20 04:18:30;;;;;;;14.05;3.60;;;13.10;99.90;;;;;;4917812;29;20043;-89
2022/08/20 04:20:56;;;;;;;17.02;2.72;;;13.10;99.90;;;;;;4918223;29;20020;-89
2022/08/20 04:23:22;;;;;;;13.32;2.72;;;13.10;99.90;;;;;;4902663;29;20032;-90
2022/08/20 04:25:47;;;;;;;11.88;2.97;;;13.10;99.90;;;;;;4918278;29;20024;-90
2022/08/20 04:28:28;;;;;;;10.15;3.28;;;13.10;99.90;;;;;;4918375;29;20054;-90
2022/08/20 04:30:58;;;;;;;14.00;3.35;;;13.00;99.90;;;;;;4912097;29;20035;-89
2022/08/20 04:33:25;;;;;;;10.57;2.47;;;13.00;99.90;;;;;;4918099;29;20028;-90
2022/08/20 04:35:53;;;;;;;12.60;2.40;;;12.90;99.90;;;;;;4917469;29;20127;-90
2022/08/20 04:38:21;;;;;;;8.05;2.05;;;12.90;99.90;;;;;;4918062;29;20048;-90
2022/08/20 04:40:54;;;;;;;6.53;2.10;;;12.80;99.90;;;;;;4918577;29;20119;-90
2022/08/20 04:43:25;;;;;;;14.27;3.17;;;12.80;99.90;;;;;;4918412;29;20028;-90
2022/08/20 04:45:56;;;;;;;15.75;3.08;;;12.80;99.90;;;;;;4902405;29;20043;-90
2022/08/20 04:48:23;;;;;;;12.60;2.80;;;12.80;99.90;;;;;;4901899;29;20051;-88
2022/08/20 04:50:50;;;;;;;13.57;2.50;;;12.80;99.90;;;;;;4918191;29;20032;-90
2022/08/20 04:53:18;;;;;;;14.70;2.83;;;12.70;99.90;;;;;;4918120;29;20031;-90
2022/08/20 04:55:45;;;;;;;16.98;3.05;;;12.70;99.90;;;;;;4918131;29;20024;-89
2022/08/20 04:58:17;;;;;;;14.55;3.00;;;12.60;99.90;;;;;;4917795;29;20035;-89
2022/08/20 05:00:51;;;;;;;18.45;3.60;;;12.60;99.90;;;;;;4918238;29;20035;-89
2022/08/20 05:03:18;;;;;;;18.45;2.83;;;12.60;99.90;;;;;;4902211;29;20559;-88
2022/08/20 05:05:44;;;;;;;13.73;2.38;;;12.60;99.90;;;;;;4917883;29;20079;-88
2022/08/20 05:08:11;;;;;;;14.82;3.17;;;12.60;99.90;;;;;;4918072;29;20027;-89
2022/08/20 05:10:38;;;;;;;16.92;3.67;;;12.60;99.90;;;;;;4918887;29;20052;-89
2022/08/20 05:13:05;;;;;;;11.48;2.67;;;12.60;99.90;;;;;;4919379;29;20038;-89
2022/08/20 05:15:30;;;;;;;8.73;2.78;;;12.60;99.90;;;;;;4921974;29;20091;-89
2022/08/20 05:18:04;;;;;;;10.35;2.42;;;12.60;99.90;;;;;;4928526;29;20079;-89
2022/08/20 05:20:32;;;;;;;10.55;2.58;;;12.70;99.90;;;;;;4924195;29;20055;-89
2022/08/20 05:23:00;;;;;;;14.63;2.72;;;12.70;99.90;;;;;;4938282;29;20024;-88
2022/08/20 05:25:30;;;;;;;8.77;2.58;;;12.70;99.90;;;;;;4939996;29;20004;-89
2022/08/20 05:28:04;;;;;;;6.25;2.40;;;12.70;99.90;;;;;;4926607;29;20036;-88
2022/08/20 05:30:32;;;;;;;13.25;2.50;;;12.70;99.90;;;;;;4921304;29;20111;-88
2022/08/20 05:32:59;;;;;;;15.10;3.60;;;12.70;99.90;;;;;;4918488;29;20032;-88
2022/08/20 05:35:26;;;;;;;12.18;2.63;;;12.80;99.90;;;;;;4902466;29;20032;-88
2022/08/20 05:37:52;;;;;;;11.35;2.28;;;12.70;99.90;;;;;;4917892;29;20401;-88
2022/08/20 05:40:18;;;;;;;13.52;3.17;;;12.80;99.90;;;;;;4917924;29;20054;-88
2022/08/20 05:42:44;;;;;;;11.07;2.47;;;12.80;99.90;;;;;;4927422;29;20458;-88
2022/08/20 05:45:15;;;;;;;14.98;3.25;;;12.90;99.90;;;;;;4917165;29;20043;-89
2022/08/20 05:47:41;;;;;;;10.95;2.75;;;12.90;99.90;;;;;;4923589;29;20071;-87
2022/08/20 05:50:09;;;;;;;17.13;2.50;;;13.00;99.90;;;;;;4931809;29;20028;-88
2022/08/20 05:52:36;;;;;;;9.25;2.97;;;13.00;99.90;;;;;;4909134;29;20024;-89
2022/08/20 05:55:08;;;;;;;8.82;2.30;;;13.10;99.90;;;;;;4906200;29;20714;-87
2022/08/20 05:57:34;;;;;;;19.67;2.75;;;13.10;99.90;;;;;;4908584;29;20033;-88
2022/08/20 06:00:03;;;;;;;17.23;2.97;;;13.20;99.90;;;;;;4903458;29;20067;-88
2022/08/20 06:05:13;;;;;;;16.98;2.55;;;13.30;99.90;;;;;;4929495;29;20091;-88
2022/08/20 06:07:39;;;;;;;18.50;3.42;;;13.40;99.90;;;;;;4927234;29;20028;-86
2022/08/20 06:10:06;;;;;;;17.65;2.42;;;13.50;99.90;;;;;;4925503;29;20028;-86
2022/08/20 06:12:32;;;;;;;8.70;2.17;;;13.60;99.90;;;;;;4924266;29;20074;-87
2022/08/20 06:14:58;;;;;;;15.27;2.55;;;13.60;99.90;;;;;;4906274;29;20039;-87
2022/08/20 06:17:24;;;;;;;11.65;2.38;;;13.70;99.90;;;;;;4904456;29;20024;-88
2022/08/20 06:19:50;;;;;;;14.95;2.80;;;13.70;99.90;;;;;;4903726;29;20034;-88
2022/08/20 06:22:16;;;;;;;15.63;2.58;;;13.80;99.90;;;;;;4902823;29;20035;-88
2022/08/20 06:24:42;;;;;;;12.75;2.60;;;13.90;99.90;;;;;;4903394;29;20064;-88
2022/08/20 06:27:13;;;;;;;13.52;2.60;;;13.90;99.90;;;;;;4915159;29;20032;-88
2022/08/20 06:29:39;;;;;;;11.82;2.20;;;14.00;99.90;;;;;;4918022;29;20036;-88
2022/08/20 06:32:05;;;;;;;10.90;2.35;;;14.10;99.90;;;;;;4901351;29;20486;-87
2022/08/20 06:34:31;;;;;;;16.45;2.30;;;14.10;99.90;;;;;;4901821;29;20016;-88
2022/08/20 06:36:58;;;;;;;13.50;2.90;;;14.20;99.90;;;;;;4900877;29;20031;-89
2022/08/20 06:39:26;;;;;;;7.65;1.85;;;14.30;99.90;;;;;;4900943;29;20043;-90
2022/08/20 06:41:52;;;;;;;8.63;2.15;;;14.40;99.90;;;;;;4907477;29;20035;-89
2022/08/20 06:44:18;;;;;;;17.58;2.95;;;14.50;99.90;;;;;;4907140;29;20474;-90
2022/08/20 06:46:44;;;;;;;13.07;2.30;;;14.60;99.90;;;;;;4923700;29;20538;-88
2022/08/20 06:49:11;;;;;;;15.02;2.20;;;14.70;99.90;;;;;;4906396;29;20784;-90
2022/08/20 06:51:37;;;;;;;10.60;2.08;;;14.70;99.90;;;;;;4922336;29;20028;-88
2022/08/20 06:54:04;;;;;;;20.10;4.57;;;14.80;99.90;;;;;;4907075;29;20032;-89
2022/08/20 06:56:32;;;;;;;8.45;1.77;;;14.80;99.90;;;;;;4921901;29;20091;-89
2022/08/20 06:58:58;;;;;;;7.55;2.30;;;14.90;99.90;;;;;;4906955;29;20127;-88
2022/08/20 07:01:24;;;;;;;10.68;2.13;;;14.90;99.90;;;;;;4906916;29;20474;-88
2022/08/20 07:03:49;;;;;;;11.13;2.05;;;15.00;99.90;;;;;;4908948;29;20044;-90
2022/08/20 07:06:16;;;;;;;9.73;2.10;;;15.10;99.90;;;;;;4923191;29;20027;-88
2022/08/20 07:08:43;;;;;;;14.82;2.28;;;15.10;99.90;;;;;;4907166;29;20107;-90
2022/08/20 07:11:11;;;;;;;10.27;2.03;;;15.20;99.90;;;;;;4923941;29;20067;-88
2022/08/20 07:13:37;;;;;;;12.82;3.08;;;15.30;99.90;;;;;;4924034;29;20048;-88
2022/08/20 07:16:04;;;;;;;12.55;3.17;;;15.50;99.90;;;;;;4907437;29;20381;-88
2022/08/20 07:18:30;;;;;;;10.10;1.90;;;15.60;99.90;;;;;;4908029;29;20044;-89
2022/08/20 07:20:57;;;;;;;12.60;2.70;;;15.60;99.90;;;;;;4924239;29;20084;-89
2022/08/20 07:23:24;;;;;;;8.73;2.60;;;15.80;99.90;;;;;;4923573;29;20024;-88
2022/08/20 07:25:50;;;;;;;15.27;2.20;;;15.90;99.90;;;;;;4923129;29;20035;-87
2022/08/20 07:28:19;;;;;;;16.38;2.90;;;16.10;99.90;;;;;;4907360;29;20036;-88
2022/08/20 07:33:30;;;;;;;12.77;2.38;;;16.30;99.90;;;;;;4922172;29;20130;-88
2022/08/20 07:35:58;;;;;;;13.13;2.22;;;16.30;99.90;;;;;;4906334;29;20080;-89
2022/08/20 07:38:25;;;;;;;8.93;2.30;;;16.40;99.90;;;;;;4922776;29;20063;-89
2022/08/20 07:40:57;;;;;;;19.88;2.80;;;16.40;99.90;;;;;;4907504;29;20034;-88
2022/08/20 07:43:23;;;;;;;13.82;2.30;;;16.40;99.90;;;;;;4923102;29;20024;-88
2022/08/20 07:45:53;;;;;;;8.75;2.08;;;16.50;99.90;;;;;;4906662;29;20035;-89
2022/08/20 07:48:19;;;;;;;17.77;2.53;;;16.50;99.90;;;;;;4906858;29;20048;-89
2022/08/20 07:50:45;;;;;;;16.00;2.42;;;16.60;99.90;;;;;;4922972;29;20032;-89
2022/08/20 07:53:11;;;;;;;11.38;2.63;;;16.60;99.90;;;;;;4925701;29;20078;-89
2022/08/20 07:55:37;;;;;;;22.75;2.88;;;16.60;99.90;;;;;;4926825;29;20029;-88
2022/08/20 07:58:12;;;;;;;14.00;2.33;;;16.60;99.90;;;;;;4928885;29;20031;-88
2022/08/20 08:00:38;;;;;;;14.13;2.42;;;16.60;99.90;;;;;;4920935;29;20146;-89
2022/08/20 08:03:05;;;;;;;13.18;2.38;;;16.60;99.90;;;;;;4919193;29;20024;-88
2022/08/20 08:05:34;;;;;;;12.10;2.92;;;16.50;99.90;;;;;;4903676;29;20028;-88
2022/08/20 08:08:00;;;;;;;13.60;2.30;;;16.50;99.90;;;;;;4920474;29;20024;-88
2022/08/20 08:10:26;;;;;;;9.30;2.05;;;16.40;99.90;;;;;;4919346;29;20427;-89
2022/08/20 08:13:01;;;;;;;18.80;2.63;;;16.40;99.90;;;;;;4919069;29;20028;-90
2022/08/20 08:15:32;;;;;;;18.50;3.15;;;16.40;99.90;;;;;;4918763;29;20044;-88
2022/08/20 08:18:05;;;;;;;13.93;2.83;;;16.30;99.90;;;;;;4905710;29;20099;-88
2022/08/20 08:20:31;;;;;;;11.32;2.33;;;16.30;99.90;;;;;;4919675;29;20017;-88
2022/08/20 08:22:57;;;;;;;16.58;3.25;;;16.30;99.90;;;;;;4918762;29;20550;-91
2022/08/20 08:25:22;;;;;;;13.23;1.95;;;16.30;99.90;;;;;;4919532;29;20028;-90
2022/08/20 08:27:48;;;;;;;11.95;2.22;;;16.50;99.90;;;;;;4918583;29;20038;-89
2022/08/20 08:30:15;;;;;;;13.52;2.85;;;16.60;99.90;;;;;;4918480;29;20020;-89
2022/08/20 08:33:26;;;;;;;12.88;2.03;;;16.70;99.90;;;;;;4917892;29;20028;-89
2022/08/20 08:35:27;;;;;;;18.13;2.70;;;16.80;99.90;;;;;;4921360;29;20162;-88
2022/08/20 08:37:53;;;;;;;9.82;2.05;;;17.00;99.90;;;;;;4919623;29;20558;-89
2022/08/20 08:40:20;;;;;;;15.65;2.45;;;17.10;99.90;;;;;;4918185;29;20043;-90
2022/08/20 08:42:56;;;;;;;14.88;2.65;;;17.20;99.90;;;;;;4918675;29;20035;-90
2022/08/20 08:45:33;;;;;;;12.35;2.67;;;17.30;99.90;;;;;;4900451;29;20154;-90
2022/08/20 08:47:59;;;;;;;9.68;2.00;;;17.40;99.90;;;;;;4916792;29;20072;-90
2022/08/20 08:50:32;;;;;;;12.80;2.15;;;17.40;99.90;;;;;;4917198;29;20032;-90
2022/08/20 08:53:00;;;;;;;11.60;1.98;;;17.50;99.90;;;;;;4909168;29;20080;-87
2022/08/20 08:55:29;;;;;;;12.15;2.22;;;17.60;99.90;;;;;;4904967;29;20032;-89
2022/08/20 08:57:59;;;;;;;9.15;1.90;;;17.80;99.90;;;;;;4921044;29;20115;-89
2022/08/20 09:00:27;;;;;;;9.90;2.30;;;17.90;99.90;;;;;;4921249;29;20039;-88
2022/08/20 09:02:59;;;;;;;7.53;1.73;;;18.10;99.90;;;;;;4935529;29;20032;-87
2022/08/20 09:05:49;;;;;;;16.65;2.30;;;18.10;99.90;;;;;;4922631;29;20126;-88
2022/08/20 09:08:18;;;;;;;10.70;2.10;;;18.10;99.90;;;;;;4921189;29;20039;-88
2022/08/20 09:10:45;;;;;;;10.15;2.00;;;18.10;99.90;;;;;;4919618;29;20028;-87
2022/08/20 09:13:12;;;;;;;9.27;2.00;;;18.10;99.90;;;;;;4929618;29;20043;-89
2022/08/20 09:15:38;;;;;;;10.48;2.00;;;18.20;99.90;;;;;;4930631;29;20036;-90
2022/08/20 09:18:04;;;;;;;7.78;1.83;;;18.30;99.90;;;;;;4927513;29;20047;-89
2022/08/20 09:20:30;;;;;;;11.25;2.88;;;18.40;99.90;;;;;;4929874;29;20036;-88
2022/08/20 09:22:56;;;;;;;8.25;1.70;;;18.40;99.90;;;;;;4929311;29;20039;-89
2022/08/20 09:25:22;;;;;;;8.77;2.63;;;18.50;99.90;;;;;;4908749;29;20124;-90
2022/08/20 09:27:47;;;;;;;6.65;1.75;;;18.60;99.90;;;;;;4921029;29;20036;-90
2022/08/20 09:30:14;;;;;;;8.85;1.95;;;18.60;99.90;;;;;;4920305;29;20051;-90
2022/08/20 09:32:40;;;;;;;12.05;2.45;;;18.60;99.90;;;;;;4918575;29;20043;-89
2022/08/20 09:35:07;;;;;;;10.48;1.90;;;18.80;99.90;;;;;;4918987;29;20020;-90
2022/08/20 09:37:33;;;;;;;8.10;1.77;;;18.80;99.90;;;;;;4903955;29;20111;-91
2022/08/20 09:39:59;;;;;;;10.57;2.30;;;18.90;99.90;;;;;;4904151;29;20371;-88
2022/08/20 09:42:30;;;;;;;8.95;2.40;;;19.00;99.90;;;;;;4906323;29;20026;-90
2022/08/20 09:44:57;;;;;;;8.25;1.80;;;19.10;99.90;;;;;;4901095;29;20043;-91
2022/08/20 09:47:24;;;;;;;8.18;1.90;;;19.10;99.90;;;;;;4919565;29;20087;-90
2022/08/20 09:49:50;;;;;;;10.13;2.13;;;19.40;99.90;;;;;;4902404;29;20453;-90
2022/08/20 09:52:27;;;;;;;7.95;2.10;;;19.60;99.20;;;;;;4902500;29;20086;-90
2022/08/20 09:54:57;;;;;;;10.48;2.20;;;19.80;98.30;;;;;;4901355;29;20032;-89
2022/08/20 09:57:24;;;;;;;7.75;1.83;;;19.90;97.50;;;;;;4898142;29;20091;-88
2022/08/20 09:59:59;;;;;;;7.47;2.10;;;20.10;97.00;;;;;;4918766;29;20036;-89
2022/08/20 10:02:25;;;;;;;10.88;2.05;;;20.30;95.70;;;;;;4914369;29;20024;-91
2022/08/20 10:04:51;;;;;;;8.18;1.98;;;20.40;95.00;;;;;;4926473;29;20040;-90
2022/08/20 10:07:18;;;;;;;8.50;1.88;;;20.60;93.90;;;;;;4907131;29;20043;-90
2022/08/20 10:09:49;;;;;;;8.40;2.38;;;20.60;93.20;;;;;;4895200;29;20052;-89
2022/08/20 10:12:15;;;;;;;10.68;2.40;;;20.70;92.90;;;;;;4908916;29;20028;-88
2022/08/20 10:14:41;;;;;;;5.13;2.10;;;20.80;92.00;;;;;;4901330;29;20032;-89
2022/08/20 10:17:06;;;;;;;12.95;1.98;;;21.00;91.50;;;;;;4898277;29;20690;-89
2022/08/20 10:19:32;;;;;;;8.35;2.08;;;21.00;90.60;;;;;;4926615;29;20121;-88
2022/08/20 10:22:01;;;;;;;5.18;1.92;;;21.10;90.40;;;;;;4909713;29;20032;-88
2022/08/20 10:24:29;;;;;;;8.77;2.67;;;21.20;89.60;;;;;;4919029;29;20036;-88
2022/08/20 10:27:02;;;;;;;9.68;2.30;;;21.40;89.00;;;;;;4904335;29;20027;-89
2022/08/20 10:29:31;;;;;;;8.85;1.98;;;21.50;87.70;;;;;;4894018;29;20032;-89
2022/08/20 10:32:11;;;;;;;6.72;2.13;;;21.60;87.20;;;;;;4894502;29;20069;-89
2022/08/20 10:34:39;;;;;;;5.63;1.77;;;21.70;86.30;;;;;;4899140;29;20060;-88
2022/08/20 10:37:05;;;;;;;7.40;2.08;;;21.80;85.40;;;;;;4914137;29;20042;-89
2022/08/20 10:39:33;;;;;;;8.27;2.53;;;21.90;84.00;;;;;;4900138;29;20036;-90
2022/08/20 10:41:59;;;;;;;8.73;2.10;;;22.00;83.20;;;;;;4892189;29;20045;-90
2022/08/20 10:44:25;;;;;;;5.47;2.20;;;22.00;82.10;;;;;;4892010;29;20055;-91
2022/08/20 10:46:51;;;;;;;12.93;2.70;;;22.00;81.80;;;;;;4892294;29;20028;-92
2022/08/20 10:49:17;;;;;;;9.13;2.20;;;21.90;81.00;;;;;;4905451;29;20037;-91
2022/08/20 10:51:42;;;;;;;9.60;2.30;;;21.60;80.30;;;;;;4891219;29;20475;-92
2022/08/20 10:54:08;;;;;;;11.98;2.38;;;21.50;80.90;;;;;;4907891;29;20055;-92
2022/08/20 10:56:34;;;;;;;12.85;2.03;;;21.40;81.50;;;;;;4895842;29;20041;-91
2022/08/20 10:59:00;;;;;;;6.03;2.05;;;21.30;81.00;;;;;;4916434;29;20544;-91
2022/08/20 11:01:25;;;;;;;13.95;2.95;;;21.30;81.80;;;;;;4898325;29;20032;-90
2022/08/20 11:03:51;;;;;;;8.30;2.70;;;21.30;81.60;;;;;;4901684;29;20039;-91
2022/08/20 11:06:17;;;;;;;11.27;2.47;;;21.20;81.90;;;;;;4899959;29;20027;-91
2022/08/20 11:08:43;;;;;;;6.05;2.13;;;21.30;81.90;;;;;;4915545;29;20024;-90
2022/08/20 11:11:08;;;;;;;13.90;2.38;;;21.40;82.40;;;;;;4899086;29;20367;-91
2022/08/20 11:13:35;;;;;;;7.40;2.13;;;21.70;82.20;;;;;;4902336;29;20398;-89
2022/08/20 11:16:02;;;;;;;11.00;3.55;;;21.80;80.80;;;;;;4916515;29;20031;-91
2022/08/20 11:18:28;;;;;;;10.13;1.80;;;22.00;79.00;;;;;;4916212;29;20067;-91
2022/08/20 11:20:54;;;;;;;9.60;2.83;;;22.00;77.90;;;;;;4917213;29;20083;-91
2022/08/20 11:23:20;;;;;;;9.13;2.85;;;22.10;78.10;;;;;;4916761;29;20036;-90
2022/08/20 11:25:46;;;;;;;7.82;2.40;;;22.30;78.40;;;;;;4917854;29;20024;-91
2022/08/20 11:28:12;;;;;;;6.50;1.83;;;22.70;77.50;;;;;;4904631;29;20036;-90
2022/08/20 11:30:38;;;;;;;7.47;2.00;;;22.80;75.20;;;;;;4920486;29;20039;-90
2022/08/20 11:33:04;;;;;;;10.85;2.60;;;23.00;74.80;;;;;;4921069;29;20410;-91
2022/08/20 11:35:33;;;;;;;8.52;1.88;;;23.40;74.50;;;;;;4922091;29;20508;-91
2022/08/20 11:37:59;;;;;;;7.75;2.08;;;23.70;72.20;;;;;;4920165;29;20036;-90
2022/08/20 11:40:27;;;;;;;7.18;2.25;;;23.60;71.30;;;;;;4919536;29;20035;-91
2022/08/20 11:42:53;;;;;;;10.20;2.25;;;23.50;71.30;;;;;;4901948;29;20040;-91
2022/08/20 11:45:19;;;;;;;6.60;2.03;;;23.40;71.50;;;;;;4906870;29;20157;-91
2022/08/20 11:47:47;;;;;;;9.88;2.03;;;23.30;71.20;;;;;;4921014;29;20494;-91
2022/08/20 11:50:16;;;;;;;7.60;2.17;;;23.50;71.10;;;;;;4922991;29;20036;-90
2022/08/20 11:52:43;;;;;;;5.77;2.10;;;23.70;70.40;;;;;;4907520;29;20031;-90
2022/08/20 11:55:11;;;;;;;6.55;1.77;;;24.00;70.20;;;;;;4930414;29;20028;-94
2022/08/20 11:57:41;;;;;;;8.57;2.20;;;23.90;67.60;;;;;;4934686;29;20043;-91
2022/08/20 12:00:10;;;;;;;;;;;23.80;67.90;;;;;;4928580;29;20114;-92
2022/08/20 12:02:35;;;;;;;6.97;1.90;;;23.80;67.70;;;;;;4928504;29;19921;-91
2022/08/20 12:05:01;;;;;;;10.10;2.58;;;23.80;65.70;;;;;;4924184;29;20115;-92
2022/08/20 12:07:27;;;;;;;11.70;2.30;;;23.80;65.50;;;;;;4935922;29;20028;-92
2022/08/20 12:09:54;;;;;;;6.05;2.10;;;23.70;65.50;;;;;;4907170;29;20032;-92
2022/08/20 12:12:22;;;;;;;9.18;2.30;;;23.70;65.30;;;;;;4910092;29;20120;-91
2022/08/20 12:14:52;;;;;;;5.93;2.00;;;23.60;64.40;;;;;;4901274;29;20067;-91
2022/08/20 12:17:27;;;;;;;7.53;2.05;;;23.40;64.40;;;;;;4903942;29;20017;-91
2022/08/20 12:19:56;;;;;;;6.32;1.92;;;23.30;64.50;;;;;;4899428;29;20036;-89
2022/08/20 12:22:22;;;;;;;9.18;2.10;;;23.40;64.50;;;;;;4917002;29;20034;-90
2022/08/20 12:24:48;;;;;;;8.25;2.10;;;23.50;65.10;;;;;;4908754;29;20498;-90
2022/08/20 12:27:20;;;;;;;7.60;1.92;;;23.70;65.40;;;;;;4912541;29;20028;-90
2022/08/20 12:29:48;;;;;;;6.28;1.80;;;24.10;65.20;;;;;;4894346;29;20049;-90
2022/08/20 12:32:14;;;;;;;7.25;2.10;;;24.30;63.90;;;;;;4902097;29;20024;-90
2022/08/20 12:34:41;;;;;;;8.90;1.98;;;24.40;62.90;;;;;;4908021;29;20390;-90
2022/08/20 12:37:13;;;;;;;7.90;2.17;;;24.40;62.80;;;;;;4908001;29;20123;-91
2022/08/20 12:39:41;;;;;;;10.57;2.13;;;24.50;61.90;;;;;;4919301;29;20036;-91
2022/08/20 12:42:07;;;;;;;4.18;2.03;;;24.30;61.50;;;;;;4912497;29;20026;-91
2022/08/20 12:44:34;;;;;;;8.25;1.90;;;24.30;61.30;;;;;;4900973;29;20508;-91
2022/08/20 12:47:13;;;;;;;6.30;2.33;;;24.10;61.40;;;;;;4897268;29;20043;-90
2022/08/20 12:49:41;;;;;;;7.63;2.70;;;23.90;61.40;;;;;;4910236;29;20055;-90